This is the latest recevied weather packets stored in our database for station/object F8COD-13. If no packets are shown the sender has not sent any weather packets the latest 10 day(s).
| Time | Temp. | Humidity | Pressure | Rain* | Wind** | Luminosity | Snow |
|---|---|---|---|---|---|---|---|
| 1777033816 | 22.22° C | 29% | 1021.1 hPa | 0 mm | - | - | - |
| 1777032036 | 21.67° C | 30% | 1021.4 hPa | 0 mm | - | - | - |
| 1777031416 | 21.67° C | 31% | 1021.5 hPa | 0 mm | - | - | - |
| 1777030218 | 21.67° C | 30% | 1021.7 hPa | 0 mm | - | - | - |
| 1777028418 | 20° C | 36% | 1021.9 hPa | 0 mm | - | - | - |
| 1777027218 | 20° C | 37% | 1022.1 hPa | 0 mm | - | - | - |
| 1777025418 | 19.44° C | 42% | 1022.2 hPa | 0 mm | - | - | - |
| 1777014017 | 15° C | 50% | 1022.7 hPa | 0 mm | - | - | - |
| 1777012217 | 12.22° C | 61% | 1022.9 hPa | 0 mm | - | - | - |
| 1777009238 | 6.67° C | 75% | 1022.7 hPa | 0 mm | - | - | - |
| 1777007438 | 6.67° C | 74% | 1022.4 hPa | 0 mm | - | - | - |
| 1777006817 | 6.67° C | 73% | 1022.4 hPa | 0 mm | - | - | - |
| 1777000817 | 7.22° C | 73% | 1022.5 hPa | 0 mm | - | - | - |
| 1776999057 | 7.22° C | 72% | 1022.8 hPa | 0 mm | - | - | - |
| 1776998417 | 7.22° C | 72% | 1022.7 hPa | 0 mm | - | - | - |
| 1776996617 | 7.78° C | 68% | 1022.6 hPa | 0 mm | - | - | - |
| 1776996017 | 8.33° C | 68% | 1022.7 hPa | 0 mm | - | - | - |
| 1776992417 | 8.33° C | 67% | 1022.7 hPa | 0 mm | - | - | - |
| 1776989417 | 10.56° C | 60% | 1022.9 hPa | 0 mm | - | - | - |
| 1776984016 | 13.89° C | 52% | 1023.4 hPa | 0 mm | - | - | - |
| 1776983416 | 13.89° C | 51% | 1023.3 hPa | 0 mm | - | - | - |
| 1776982216 | 14.44° C | 50% | 1023.4 hPa | 0 mm | - | - | - |
| 1776975617 | 13.33° C | 48% | 1023.3 hPa | 0 mm | - | - | - |
* Rain latest hour (hover to see other rain measurements)
** Current wind speed in m/s (hover to see current wind gust speed)